Ana Sayfa
METAR-TAF:

METAR-TAF

Havaalanları :

East Hampton Airport

East Hampton, New York, Amerika Birleşik Devletleri

Enlem: 40-57-34N, Boylam: 072-15-07W, yükseklik: 17 m

Güncel hava durumu gözlemi

Rapor saat 23:55 UTC de 23 dakika önce yapıldı.
Rüzgar batı/kuzeybatıdan 9 kt ve 15 kt'a kadar ani rüzgarlar, batı ve kuzeybatı arasında değişken
Sıcaklık 3°C
Nem 56%
Basınç 1010 hPa
Görüş mesafesi: 16.1 km
4800 ft yükseklikte parçalı bulutlu
7000 ft yükseklikte çok bulutlu

METAR: KHTO 192355Z AUTO 30009G15KT 260V320 10SM SCT048 OVC070 03/M05 A2982 RMK AO2 T00281049 10073 20028

Saat: 19:18 (00:18 UTC)


TAF: eksik

4.000'den fazla havaalanı için hava durumu gözlemleri ve tahminleri (METAR ve TAF raporları).

Kullanılabilir istasyonlar harita üzerinde sarı ve kırmızı noktalarla gösterilir.

İstasyonun adını görmek için fareyi noktanın üzerinde gezdirin.

Sonrasında hava gözlem ve tahminlerini görmek için tıklayın.

Haritayı değiştirmek için: yaklaştırmak için siyah artı işaretli yeşil düğmeye ve uzaklaştırmak için de eksi işaretli düğmeye hızla tıklayın; bitişik haritalar için yeşil okları kullanın.


METAR-TAF: